Time;durP1;ratioP1;P1;durP2;ratioP2;P2;SDS_P1;SDS_P2;PMS_P1;PMS_P2;Temp;Humidity;BMP_temperature;BMP_pressure;BME280_temperature;BME280_humidity;BME280_pressure;Samples;Min_cycle;Max_cycle;Signal;HPM_P1;HPM_P2
2021/03/17 00:02:16;;;;;;;4.85;2.95;;;4.20;99.90;;;;;;4968798;28;20043;-78
2021/03/17 00:04:42;;;;;;;7.22;3.80;;;4.30;99.90;;;;;;4969368;28;20045;-79
2021/03/17 00:07:07;;;;;;;6.82;3.83;;;4.20;99.90;;;;;;4960526;28;20046;-78
2021/03/17 00:09:33;;;;;;;7.43;3.33;;;4.30;99.90;;;;;;4967649;28;20118;-79
2021/03/17 00:11:59;;;;;;;6.40;3.40;;;4.30;99.90;;;;;;4961101;28;20078;-79
2021/03/17 00:14:24;;;;;;;6.60;3.10;;;4.30;99.90;;;;;;4964430;28;20054;-78
2021/03/17 00:16:50;;;;;;;6.20;3.30;;;4.30;99.90;;;;;;4969963;28;20054;-78
2021/03/17 00:19:15;;;;;;;7.15;3.80;;;4.30;99.90;;;;;;4971593;28;20372;-79
2021/03/17 00:21:41;;;;;;;5.63;3.20;;;4.30;99.90;;;;;;4970768;28;20038;-78
2021/03/17 00:24:07;;;;;;;6.00;3.50;;;4.30;99.90;;;;;;4966292;28;20042;-79
2021/03/17 00:26:33;;;;;;;5.85;3.58;;;4.20;99.90;;;;;;4958638;28;20036;-79
2021/03/17 00:28:58;;;;;;;5.25;3.28;;;4.30;99.90;;;;;;4960726;28;20073;-80
2021/03/17 00:31:24;;;;;;;6.82;3.67;;;4.30;99.90;;;;;;4958337;28;20121;-79
2021/03/17 00:33:50;;;;;;;5.40;2.85;;;4.20;99.90;;;;;;4962537;28;20050;-80
2021/03/17 00:36:15;;;;;;;6.95;3.78;;;4.20;99.90;;;;;;4964396;28;20066;-80
2021/03/17 00:38:41;;;;;;;6.55;3.50;;;4.30;99.90;;;;;;4960322;28;20043;-82
2021/03/17 00:41:07;;;;;;;6.57;3.75;;;4.30;99.90;;;;;;4959131;28;20047;-81
2021/03/17 00:43:32;;;;;;;8.45;4.40;;;4.20;99.90;;;;;;4962767;28;20097;-81
2021/03/17 00:45:58;;;;;;;10.95;4.47;;;4.20;99.90;;;;;;4973533;28;20034;-82
2021/03/17 00:48:23;;;;;;;7.10;3.85;;;4.30;99.90;;;;;;4962297;28;20712;-82
2021/03/17 00:50:49;;;;;;;7.68;4.18;;;4.20;99.90;;;;;;4960469;28;20031;-82
2021/03/17 00:53:14;;;;;;;7.75;4.03;;;4.30;99.90;;;;;;4960101;28;20629;-82
2021/03/17 00:55:40;;;;;;;7.15;3.60;;;4.20;99.90;;;;;;4954580;28;20031;-82
2021/03/17 00:58:05;;;;;;;6.65;3.83;;;4.30;99.90;;;;;;4954341;28;20537;-82
2021/03/17 01:00:31;;;;;;;6.95;4.28;;;4.20;99.90;;;;;;4954890;28;20074;-79
2021/03/17 01:02:56;;;;;;;7.70;4.20;;;4.20;99.90;;;;;;4956235;28;20122;-78
2021/03/17 01:05:22;;;;;;;7.40;4.47;;;4.20;99.90;;;;;;4962079;28;20031;-78
2021/03/17 01:07:48;;;;;;;7.85;4.60;;;4.20;99.90;;;;;;4968568;28;20486;-80
2021/03/17 01:10:24;;;;;;;7.63;4.00;;;4.10;99.90;;;;;;4965431;28;20035;-80
2021/03/17 01:12:50;;;;;;;7.95;4.07;;;4.10;99.90;;;;;;4952960;28;20031;-80
2021/03/17 01:15:18;;;;;;;7.50;4.75;;;4.10;99.90;;;;;;4950734;28;20090;-80
2021/03/17 01:17:44;;;;;;;10.80;5.28;;;4.10;99.90;;;;;;4950222;28;20542;-79
2021/03/17 01:20:10;;;;;;;8.30;4.82;;;4.10;99.90;;;;;;4953069;28;20043;-80
2021/03/17 01:22:36;;;;;;;8.63;4.82;;;4.00;99.90;;;;;;4959410;28;20094;-79
2021/03/17 01:25:03;;;;;;;9.65;5.03;;;4.00;99.90;;;;;;4966459;28;20368;-78
2021/03/17 01:27:28;;;;;;;7.97;4.90;;;4.00;99.90;;;;;;4963045;28;20036;-78
2021/03/17 01:29:54;;;;;;;8.35;4.80;;;4.00;99.90;;;;;;4965479;28;20040;-79
2021/03/17 01:32:19;;;;;;;8.32;4.78;;;4.10;99.90;;;;;;4970590;28;20163;-80
2021/03/17 01:34:45;;;;;;;8.20;4.90;;;4.00;99.90;;;;;;4964591;28;20087;-79
2021/03/17 01:37:12;;;;;;;7.75;5.03;;;4.00;99.90;;;;;;4965077;28;20043;-80
2021/03/17 01:39:38;;;;;;;7.75;4.70;;;4.00;99.90;;;;;;4960746;28;20050;-79
2021/03/17 01:42:04;;;;;;;9.18;5.25;;;4.00;99.90;;;;;;4964158;28;20036;-80
2021/03/17 01:44:29;;;;;;;11.90;5.40;;;4.00;99.90;;;;;;4962766;28;20047;-81
2021/03/17 01:46:55;;;;;;;8.05;5.20;;;4.00;99.90;;;;;;4962303;28;20035;-80
2021/03/17 01:49:20;;;;;;;10.27;5.03;;;4.00;99.90;;;;;;4962659;28;20050;-81
2021/03/17 01:51:46;;;;;;;8.10;4.88;;;4.00;99.90;;;;;;4963279;28;20050;-79
2021/03/17 01:54:12;;;;;;;9.77;5.28;;;4.00;99.90;;;;;;4964100;28;20043;-81
2021/03/17 01:56:38;;;;;;;8.25;4.25;;;4.00;99.90;;;;;;4963782;28;20047;-82
2021/03/17 01:59:03;;;;;;;8.38;4.65;;;4.00;99.90;;;;;;4962046;28;20112;-81
2021/03/17 02:01:30;;;;;;;9.32;4.72;;;4.00;99.90;;;;;;4963645;28;20035;-81
2021/03/17 02:03:55;;;;;;;8.98;4.88;;;4.00;99.90;;;;;;4966193;28;20031;-81
2021/03/17 02:06:21;;;;;;;8.30;4.75;;;4.00;99.90;;;;;;4963766;28;20106;-80
2021/03/17 02:08:47;;;;;;;8.18;4.50;;;4.00;99.90;;;;;;4959017;28;20043;-79
2021/03/17 02:11:13;;;;;;;9.55;5.15;;;4.00;99.90;;;;;;4959979;28;20749;-80
2021/03/17 02:13:41;;;;;;;7.75;4.28;;;4.00;99.90;;;;;;4957127;28;20114;-79
2021/03/17 02:16:18;;;;;;;7.47;4.50;;;4.00;99.90;;;;;;4955418;28;20037;-79
2021/03/17 02:18:57;;;;;;;7.43;4.43;;;4.00;99.90;;;;;;4958251;28;20028;-80
2021/03/17 02:21:41;;;;;;;6.60;4.70;;;4.00;99.90;;;;;;4965281;28;20031;-80
2021/03/17 02:24:25;;;;;;;5.55;3.22;;;4.00;99.90;;;;;;4955300;28;20035;-80
2021/03/17 02:27:14;;;;;;;;;;;4.00;99.90;;;;;;4957385;28;20396;-79
2021/03/17 02:29:47;;;;;;;6.57;3.70;;;3.90;99.90;;;;;;4975825;28;20001;-80
2021/03/17 02:32:31;;;;;;;5.53;3.13;;;4.00;99.90;;;;;;4955528;28;20043;-80
2021/03/17 02:35:01;;;;;;;8.80;3.50;;;3.90;99.90;;;;;;4954651;28;20049;-80
2021/03/17 02:37:27;;;;;;;6.15;3.58;;;3.90;99.90;;;;;;4964646;28;20114;-79
2021/03/17 02:40:27;;;;;;;7.25;3.60;;;3.90;99.90;;;;;;4957432;28;20035;-80
2021/03/17 02:43:01;;;;;;;5.50;3.45;;;3.90;99.90;;;;;;4956997;28;20045;-80
2021/03/17 02:45:29;;;;;;;4.60;3.00;;;3.90;99.90;;;;;;4957689;28;20050;-81
2021/03/17 02:48:10;;;;;;;6.80;3.35;;;3.90;99.90;;;;;;4956289;28;20137;-81
2021/03/17 02:50:40;;;;;;;5.45;2.83;;;3.80;99.90;;;;;;4960192;28;20039;-80
2021/03/17 02:53:08;;;;;;;6.93;3.55;;;3.80;99.90;;;;;;4959461;28;20043;-80
2021/03/17 02:55:39;;;;;;;5.03;2.92;;;3.90;99.90;;;;;;4958080;28;20035;-80
2021/03/17 02:58:06;;;;;;;5.35;3.42;;;3.80;99.90;;;;;;4957287;28;20039;-82
2021/03/17 03:00:32;;;;;;;6.05;3.30;;;3.80;99.90;;;;;;4961813;28;20031;-81
2021/03/17 03:03:00;;;;;;;5.82;3.22;;;3.80;99.90;;;;;;4959485;28;20043;-79
2021/03/17 03:05:28;;;;;;;5.88;3.47;;;3.80;99.90;;;;;;4961109;28;20555;-80
2021/03/17 03:07:57;;;;;;;5.57;3.10;;;3.80;99.90;;;;;;4960265;28;20089;-79
2021/03/17 03:10:25;;;;;;;5.57;3.47;;;3.80;99.90;;;;;;4957568;28;20050;-80
2021/03/17 03:12:51;;;;;;;5.68;3.50;;;3.70;99.90;;;;;;4968547;28;20037;-79
2021/03/17 03:15:19;;;;;;;8.90;3.60;;;3.70;99.90;;;;;;4962819;28;20743;-80
2021/03/17 03:17:46;;;;;;;5.15;3.30;;;3.70;99.90;;;;;;4956648;28;20058;-80
2021/03/17 03:20:16;;;;;;;5.40;3.33;;;3.70;99.90;;;;;;4954305;28;20452;-80
2021/03/17 03:22:43;;;;;;;5.50;3.20;;;3.60;99.90;;;;;;4953984;28;20042;-80
2021/03/17 03:25:10;;;;;;;6.57;3.72;;;3.60;99.90;;;;;;4950971;28;20031;-81
2021/03/17 03:27:38;;;;;;;5.78;3.45;;;3.60;99.90;;;;;;4954535;28;20035;-79
2021/03/17 03:30:14;;;;;;;8.05;3.45;;;3.70;99.90;;;;;;4940423;28;20613;-79
2021/03/17 03:32:44;;;;;;;6.68;3.85;;;3.70;99.90;;;;;;4967079;28;20046;-81
2021/03/17 03:35:12;;;;;;;5.78;3.35;;;3.70;99.90;;;;;;4962210;28;20062;-79
2021/03/17 03:37:38;;;;;;;5.90;3.55;;;3.70;99.90;;;;;;4943138;28;20783;-79
2021/03/17 03:40:14;;;;;;;5.05;3.10;;;3.70;99.90;;;;;;4975543;28;20050;-79
2021/03/17 03:42:41;;;;;;;6.90;3.67;;;3.60;99.90;;;;;;4941183;28;20070;-79
2021/03/17 03:45:09;;;;;;;6.22;3.17;;;3.60;99.90;;;;;;4944896;28;20616;-78
2021/03/17 03:47:35;;;;;;;10.13;4.03;;;3.60;99.90;;;;;;4943566;28;20058;-79
2021/03/17 03:50:01;;;;;;;6.18;3.35;;;3.60;99.90;;;;;;4966361;28;20587;-78
2021/03/17 03:53:06;;;;;;;8.43;4.28;;;3.50;99.90;;;;;;4930329;28;20189;-78
2021/03/17 03:55:50;;;;;;;6.63;3.60;;;3.50;99.90;;;;;;4931031;28;20046;-78
2021/03/17 03:58:25;;;;;;;;;;;3.50;99.90;;;;;;4954496;28;20035;-76
2021/03/17 04:00:53;;;;;;;8.10;4.32;;;3.50;99.90;;;;;;4914548;28;19918;-79
2021/03/17 04:03:22;;;;;;;8.68;4.18;;;3.50;99.90;;;;;;4948170;28;20524;-78
2021/03/17 04:05:52;;;;;;;8.35;4.15;;;3.50;99.90;;;;;;4922050;28;20439;-79
2021/03/17 04:08:19;;;;;;;6.45;3.90;;;3.50;99.90;;;;;;4949205;28;20023;-79
2021/03/17 04:10:54;;;;;;;6.90;3.63;;;3.50;99.90;;;;;;4917483;28;20053;-79
2021/03/17 04:13:22;;;;;;;7.95;4.15;;;3.50;99.90;;;;;;4944420;28;20447;-78
2021/03/17 04:15:49;;;;;;;8.05;4.80;;;3.50;99.90;;;;;;4918788;28;20031;-78
2021/03/17 04:18:16;;;;;;;8.10;4.43;;;3.50;99.90;;;;;;4931944;28;20562;-79
2021/03/17 04:20:48;;;;;;;9.75;4.82;;;3.50;99.90;;;;;;4953982;28;20031;-79
2021/03/17 04:23:15;;;;;;;12.32;4.35;;;3.50;99.90;;;;;;4908742;28;20039;-78
2021/03/17 04:25:47;;;;;;;8.32;4.88;;;3.50;99.90;;;;;;4970395;28;20035;-78
2021/03/17 04:28:16;;;;;;;8.40;4.63;;;3.50;99.90;;;;;;4922984;28;20031;-78
2021/03/17 04:30:44;;;;;;;7.00;4.35;;;3.50;99.90;;;;;;4921964;28;20041;-78
2021/03/17 04:33:12;;;;;;;8.23;4.80;;;3.50;99.90;;;;;;4965548;28;20049;-78
2021/03/17 04:35:39;;;;;;;10.90;5.20;;;3.60;99.90;;;;;;4942490;28;20584;-79
2021/03/17 04:38:06;;;;;;;8.60;4.97;;;3.60;99.90;;;;;;4954911;28;20087;-78
2021/03/17 04:40:33;;;;;;;9.20;4.90;;;3.60;99.90;;;;;;4958790;28;20485;-79
2021/03/17 04:42:59;;;;;;;9.77;4.95;;;3.50;99.90;;;;;;4964015;28;20509;-82
2021/03/17 04:45:25;;;;;;;9.40;5.00;;;3.60;99.90;;;;;;4933080;28;20264;-78
2021/03/17 04:47:53;;;;;;;9.07;5.32;;;3.60;99.90;;;;;;4922294;28;20079;-79
2021/03/17 04:50:19;;;;;;;11.35;5.85;;;3.60;99.90;;;;;;4942233;28;20042;-79
2021/03/17 04:52:45;;;;;;;9.57;5.38;;;3.60;99.90;;;;;;4915024;28;20049;-79
2021/03/17 04:55:15;;;;;;;11.13;6.10;;;3.60;99.90;;;;;;4916674;28;20034;-79
2021/03/17 04:57:44;;;;;;;9.75;6.10;;;3.60;99.90;;;;;;4951924;28;20405;-79
2021/03/17 05:00:12;;;;;;;13.50;6.47;;;3.60;99.90;;;;;;4954162;28;20035;-78
2021/03/17 05:02:43;;;;;;;9.52;6.40;;;3.60;99.90;;;;;;4918360;28;20096;-79
2021/03/17 05:05:10;;;;;;;11.07;6.45;;;3.60;99.90;;;;;;4951316;28;20835;-79
2021/03/17 05:07:39;;;;;;;12.45;7.43;;;3.60;99.90;;;;;;4926973;28;20046;-79
2021/03/17 05:10:08;;;;;;;11.85;7.22;;;3.60;99.90;;;;;;4919293;28;20499;-78
2021/03/17 05:12:34;;;;;;;13.43;7.30;;;3.60;99.90;;;;;;4967201;28;20057;-78
2021/03/17 05:15:00;;;;;;;16.30;7.43;;;3.60;99.90;;;;;;4952632;28;20050;-79
2021/03/17 05:17:27;;;;;;;16.45;8.23;;;3.60;99.90;;;;;;4960598;28;20039;-78
2021/03/17 05:19:53;;;;;;;12.63;7.68;;;3.60;99.90;;;;;;4958079;28;20035;-78
2021/03/17 05:22:20;;;;;;;14.05;7.85;;;3.60;99.90;;;;;;4961482;28;20036;-78
2021/03/17 05:24:46;;;;;;;13.27;7.72;;;3.70;99.90;;;;;;4974496;28;20042;-79
2021/03/17 05:27:18;;;;;;;13.75;8.35;;;3.60;99.90;;;;;;4968048;28;20045;-79
2021/03/17 05:29:45;;;;;;;15.32;9.57;;;3.70;99.90;;;;;;4959001;28;20136;-79
2021/03/17 05:32:12;;;;;;;15.23;8.73;;;3.60;99.90;;;;;;4958425;28;20039;-79
2021/03/17 05:34:57;;;;;;;17.25;9.77;;;3.70;99.90;;;;;;4959129;28;20618;-79
2021/03/17 05:37:27;;;;;;;16.77;9.55;;;3.70;99.90;;;;;;4952868;28;20129;-78
2021/03/17 05:39:54;;;;;;;17.38;9.50;;;3.70;99.90;;;;;;4972748;28;20044;-80
2021/03/17 05:42:21;;;;;;;15.77;9.82;;;3.70;99.90;;;;;;4967073;28;20031;-79
2021/03/17 05:44:47;;;;;;;20.08;10.70;;;3.60;99.90;;;;;;4972782;28;20038;-79
2021/03/17 05:47:14;;;;;;;18.98;10.77;;;3.70;99.90;;;;;;4970291;28;20129;-78
2021/03/17 05:49:41;;;;;;;23.10;11.07;;;3.70;99.90;;;;;;4978078;28;20370;-78
2021/03/17 05:52:08;;;;;;;20.17;11.05;;;3.80;99.90;;;;;;4974880;28;20106;-79
2021/03/17 05:54:37;;;;;;;19.65;11.95;;;3.80;99.90;;;;;;4957865;28;20047;-80
2021/03/17 05:57:03;;;;;;;20.88;11.15;;;3.70;99.90;;;;;;4956680;28;20039;-78
2021/03/17 05:59:30;;;;;;;18.45;11.27;;;3.70;99.90;;;;;;4966356;28;20035;-79
2021/03/17 06:01:56;;;;;;;22.90;12.45;;;3.70;99.90;;;;;;4968006;28;20039;-78
2021/03/17 06:04:25;;;;;;;19.33;11.18;;;3.80;99.90;;;;;;4967576;28;20069;-79
2021/03/17 06:06:55;;;;;;;22.67;12.38;;;3.80;99.90;;;;;;4971102;28;20126;-80
2021/03/17 06:09:23;;;;;;;24.40;12.02;;;3.80;99.90;;;;;;4956938;28;20031;-81
2021/03/17 06:11:54;;;;;;;23.83;13.70;;;3.80;99.90;;;;;;4960843;28;20065;-81
2021/03/17 06:14:26;;;;;;;24.60;13.43;;;3.80;99.90;;;;;;4959388;28;20385;-81
2021/03/17 06:17:03;;;;;;;25.77;13.25;;;3.80;99.90;;;;;;4959530;28;20027;-80
2021/03/17 06:19:32;;;;;;;27.17;13.48;;;3.80;99.90;;;;;;4961965;28;20054;-79
2021/03/17 06:21:59;;;;;;;27.15;13.77;;;3.80;99.90;;;;;;4962031;28;20103;-78
2021/03/17 06:24:27;;;;;;;25.90;14.63;;;3.80;99.90;;;;;;4968178;28;20047;-79
2021/03/17 06:26:53;;;;;;;23.88;13.50;;;3.80;99.90;;;;;;4973672;28;20208;-79
2021/03/17 06:29:18;;;;;;;29.63;14.73;;;3.80;99.90;;;;;;4972294;28;20044;-81
2021/03/17 06:31:47;;;;;;;25.00;14.50;;;3.80;99.90;;;;;;4965484;28;20055;-85
2021/03/17 06:34:14;;;;;;;24.23;12.75;;;3.80;99.90;;;;;;4958815;28;20039;-79
2021/03/17 06:36:55;;;;;;;29.75;14.30;;;3.80;99.90;;;;;;4956629;28;20126;-81
2021/03/17 06:39:22;;;;;;;29.00;15.68;;;3.90;99.90;;;;;;4961600;28;20479;-83
2021/03/17 06:41:55;;;;;;;29.85;16.08;;;3.80;99.90;;;;;;4958565;28;20042;-81
2021/03/17 06:44:23;;;;;;;28.45;15.25;;;3.90;99.90;;;;;;4961309;28;20082;-78
2021/03/17 06:47:20;;;;;;;27.45;13.93;;;3.90;99.90;;;;;;4957862;28;20432;-79
2021/03/17 06:49:53;;;;;;;36.97;16.42;;;3.90;99.90;;;;;;4959959;28;20443;-79
2021/03/17 06:52:29;;;;;;;33.80;16.20;;;3.90;99.90;;;;;;4959097;28;20050;-79
2021/03/17 06:55:09;;;;;;;29.10;15.70;;;3.90;99.90;;;;;;4959357;28;20043;-78
2021/03/17 06:57:35;;;;;;;29.48;15.75;;;3.90;99.90;;;;;;4957799;28;20043;-80
2021/03/17 07:00:26;;;;;;;27.55;15.23;;;3.90;99.90;;;;;;4957496;28;20043;-79
2021/03/17 07:02:53;;;;;;;25.50;13.50;;;3.90;99.90;;;;;;4957130;28;20031;-81
2021/03/17 07:05:20;;;;;;;23.92;13.38;;;3.90;99.90;;;;;;4959300;28;20234;-81
2021/03/17 07:07:48;;;;;;;24.67;13.35;;;3.90;99.90;;;;;;4961722;28;20472;-79
2021/03/17 07:10:25;;;;;;;26.00;12.98;;;3.90;99.90;;;;;;4964290;28;20034;-80
2021/03/17 07:12:56;;;;;;;22.88;13.40;;;4.10;99.90;;;;;;4961817;28;20050;-78
2021/03/17 07:15:22;;;;;;;23.85;12.95;;;4.10;99.90;;;;;;4963140;28;20045;-80
2021/03/17 07:17:48;;;;;;;22.50;12.05;;;4.10;99.90;;;;;;4964002;28;20291;-78
2021/03/17 07:20:34;;;;;;;24.00;13.38;;;4.10;99.90;;;;;;4964278;28;20051;-78
2021/03/17 07:23:36;;;;;;;21.85;12.60;;;4.20;99.90;;;;;;4965856;28;20050;-78
2021/03/17 07:26:25;;;;;;;23.30;12.60;;;4.10;99.90;;;;;;4965020;28;20928;-78
2021/03/17 07:29:00;;;;;;;28.92;12.73;;;4.30;99.90;;;;;;4977671;28;20042;-79
2021/03/17 07:31:30;;;;;;;;;;;4.30;99.90;;;;;;4962761;28;20066;-79
2021/03/17 07:34:17;;;;;;;22.55;12.23;;;4.30;99.90;;;;;;4976232;28;20291;-80
2021/03/17 07:36:47;;;;;;;22.45;11.93;;;4.30;99.90;;;;;;4976253;28;20073;-79
2021/03/17 07:39:20;;;;;;;25.20;11.93;;;4.30;99.90;;;;;;4975696;28;20035;-79
2021/03/17 07:41:46;;;;;;;22.52;11.55;;;4.40;99.90;;;;;;4960661;28;20101;-80
2021/03/17 07:44:14;;;;;;;28.83;12.05;;;4.30;99.90;;;;;;4963224;28;20121;-79
2021/03/17 07:46:42;;;;;;;21.77;11.23;;;4.40;99.90;;;;;;4974915;28;20049;-79
2021/03/17 07:49:09;;;;;;;19.33;10.88;;;4.50;99.90;;;;;;4981379;28;20051;-79
2021/03/17 07:51:40;;;;;;;23.08;11.30;;;4.30;99.90;;;;;;4972921;28;20184;-79
2021/03/17 07:54:07;;;;;;;21.60;11.35;;;4.40;99.90;;;;;;4971670;28;20054;-80
2021/03/17 07:56:39;;;;;;;22.63;11.82;;;4.50;99.90;;;;;;4970246;28;20047;-80
2021/03/17 07:59:05;;;;;;;26.23;12.07;;;4.60;99.90;;;;;;4957043;28;20043;-80
2021/03/17 08:01:31;;;;;;;11.80;6.90;;;4.70;99.90;;;;;;4960385;28;20039;-80
2021/03/17 08:03:57;;;;;;;15.82;5.40;;;4.50;99.90;;;;;;4966910;28;20118;-81
2021/03/17 08:06:23;;;;;;;17.98;7.80;;;4.80;99.90;;;;;;4960176;28;20144;-82
2021/03/17 08:08:49;;;;;;;17.88;8.48;;;5.00;99.90;;;;;;4961140;28;20612;-80
2021/03/17 08:11:19;;;;;;;14.88;7.40;;;5.00;99.90;;;;;;4967327;28;20097;-81
2021/03/17 08:13:50;;;;;;;11.43;6.43;;;5.20;99.90;;;;;;4963551;28;20498;-80
2021/03/17 08:16:21;;;;;;;8.63;5.90;;;5.20;99.90;;;;;;4966062;28;20047;-80
2021/03/17 08:18:49;;;;;;;13.85;6.28;;;5.20;99.90;;;;;;4967403;28;20058;-81
2021/03/17 08:21:49;;;;;;;12.13;6.13;;;5.60;99.90;;;;;;4963767;28;20035;-89
2021/03/17 08:24:44;;;;;;;14.13;6.53;;;5.80;99.90;;;;;;4964815;28;20062;-82
2021/03/17 08:27:20;;;;;;;;;;;5.50;99.90;;;;;;4973179;28;20086;-82
2021/03/17 08:29:50;;;;;;;12.02;6.93;;;6.10;99.90;;;;;;4972020;28;20480;-82
2021/03/17 08:32:18;;;;;;;18.40;7.80;;;6.80;99.90;;;;;;4953708;28;20090;-82
2021/03/17 08:34:57;;;;;;;14.13;7.22;;;6.50;99.90;;;;;;4964916;28;20058;-84
2021/03/17 08:37:49;;;;;;;14.45;7.72;;;6.90;99.90;;;;;;4970303;28;20053;-82
2021/03/17 08:40:29;;;;;;;16.20;7.78;;;7.30;99.90;;;;;;4966736;28;20089;-83
2021/03/17 08:42:59;;;;;;;13.60;7.85;;;7.30;99.90;;;;;;4969684;28;20030;-83
2021/03/17 08:45:24;;;;;;;16.50;9.23;;;7.20;99.90;;;;;;4961082;28;20089;-84
2021/03/17 08:47:52;;;;;;;19.40;8.32;;;7.20;99.90;;;;;;4968522;28;20142;-84
2021/03/17 08:50:46;;;;;;;19.27;10.35;;;6.90;98.30;;;;;;4961687;28;20050;-83
2021/03/17 08:53:47;;;;;;;16.08;9.35;;;6.50;99.30;;;;;;4959166;28;20114;-85
2021/03/17 08:59:56;;;;;;;20.88;7.25;;;7.40;98.60;;;;;;4968164;28;20045;-82
2021/03/17 09:02:25;;;;;;;16.52;7.22;;;7.10;94.70;;;;;;4952977;28;20657;-82
2021/03/17 09:08:38;;;;;;;15.05;6.70;;;6.50;94.30;;;;;;4967694;28;20034;-83
2021/03/17 09:11:04;;;;;;;13.30;6.47;;;6.30;95.20;;;;;;4947887;28;20035;-82
2021/03/17 09:13:54;;;;;;;15.45;7.80;;;6.30;96.30;;;;;;4957895;28;20467;-83
2021/03/17 09:19:21;;;;;;;10.70;5.10;;;9.90;75.40;;;;;;4968362;23;20074;-79
2021/03/17 09:21:46;;;;;;;17.92;5.13;;;10.10;65.80;;;;;;4950256;28;20134;-79
2021/03/17 09:24:33;;;;;;;11.75;4.72;;;8.80;64.10;;;;;;4944690;28;20035;-81
2021/03/17 09:27:06;;;;;;;11.63;4.78;;;8.60;69.30;;;;;;4946417;28;20039;-80
2021/03/17 09:29:34;;;;;;;13.30;4.55;;;8.50;66.10;;;;;;4950814;28;20034;-81
2021/03/17 09:32:01;;;;;;;9.32;4.65;;;8.40;70.00;;;;;;4950438;28;20043;-80
2021/03/17 09:34:29;;;;;;;9.25;5.13;;;7.70;71.70;;;;;;4945899;28;20177;-81
2021/03/17 09:37:06;;;;;;;9.88;5.55;;;7.80;73.30;;;;;;4945081;28;20162;-82
2021/03/17 09:39:36;;;;;;;14.20;5.20;;;7.90;73.10;;;;;;4946667;28;20126;-81
2021/03/17 09:42:03;;;;;;;11.23;4.65;;;7.70;73.30;;;;;;4934415;28;20118;-81
2021/03/17 09:44:28;;;;;;;11.88;5.10;;;7.40;77.10;;;;;;4945863;28;20106;-82
2021/03/17 09:46:55;;;;;;;14.05;5.22;;;7.30;75.70;;;;;;4947393;28;20059;-81
2021/03/17 09:49:23;;;;;;;12.52;5.70;;;7.20;77.10;;;;;;4947756;28;20523;-82
2021/03/17 09:51:54;;;;;;;15.20;5.22;;;7.30;77.30;;;;;;4948456;28;20522;-82
2021/03/17 09:54:22;;;;;;;10.40;4.40;;;7.50;75.80;;;;;;4946157;28;20453;-82
2021/03/17 09:56:48;;;;;;;10.73;4.85;;;7.50;72.40;;;;;;4951926;28;20055;-80
2021/03/17 09:59:13;;;;;;;12.90;4.53;;;7.80;72.50;;;;;;4951530;28;20559;-81
2021/03/17 10:01:49;;;;;;;9.13;4.00;;;9.10;66.20;;;;;;4948418;28;20046;-79
2021/03/17 10:04:22;;;;;;;8.55;3.78;;;10.40;61.00;;;;;;4950716;28;20121;-80
2021/03/17 10:06:49;;;;;;;6.20;3.63;;;10.90;54.10;;;;;;4966855;28;20042;-81
2021/03/17 10:09:15;;;;;;;11.93;4.20;;;12.20;52.40;;;;;;4953833;28;20130;-80
2021/03/17 10:11:41;;;;;;;8.65;4.05;;;11.60;47.60;;;;;;4953880;28;20042;-80
2021/03/17 10:14:14;;;;;;;11.45;4.90;;;9.50;52.10;;;;;;4957720;28;20058;-80
2021/03/17 10:16:40;;;;;;;10.15;4.20;;;9.10;57.70;;;;;;4955958;28;20442;-81
2021/03/17 10:19:10;;;;;;;7.93;3.90;;;8.60;62.80;;;;;;4954102;28;20046;-81
2021/03/17 10:21:37;;;;;;;9.07;4.63;;;8.90;64.40;;;;;;4956241;28;20096;-82
2021/03/17 10:24:03;;;;;;;10.18;4.25;;;9.00;63.60;;;;;;4952758;28;20613;-82
2021/03/17 10:26:29;;;;;;;7.78;4.10;;;9.10;63.00;;;;;;4956665;28;20042;-82
2021/03/17 10:28:55;;;;;;;8.75;3.88;;;8.80;62.30;;;;;;4953817;28;20102;-82
2021/03/17 10:31:21;;;;;;;8.57;4.82;;;8.80;62.80;;;;;;4957564;28;20039;-83
2021/03/17 10:33:48;;;;;;;12.15;3.95;;;9.00;63.50;;;;;;4958835;28;20119;-86
2021/03/17 10:36:14;;;;;;;11.30;3.97;;;8.90;64.50;;;;;;4957168;28;20039;-87
2021/03/17 10:38:49;;;;;;;12.68;4.20;;;8.80;61.50;;;;;;4957031;28;20599;-82
2021/03/17 10:41:15;;;;;;;7.18;4.15;;;8.40;62.30;;;;;;4957416;28;20046;-82
2021/03/17 10:43:40;;;;;;;8.65;3.45;;;8.60;63.00;;;;;;4954179;28;20475;-80
2021/03/17 10:46:06;;;;;;;8.70;3.05;;;8.80;59.00;;;;;;4955030;28;20050;-81
2021/03/17 10:48:31;;;;;;;7.38;3.40;;;9.10;57.10;;;;;;4955115;28;20382;-82
2021/03/17 10:50:57;;;;;;;11.73;3.40;;;10.10;54.30;;;;;;4954105;28;20112;-83
2021/03/17 10:53:25;;;;;;;5.68;3.15;;;12.30;44.60;;;;;;4953273;28;20035;-82
2021/03/17 10:56:00;;;;;;;7.28;3.50;;;11.70;43.00;;;;;;4954458;28;20059;-82
2021/03/17 10:58:31;;;;;;;8.35;2.97;;;10.80;43.00;;;;;;4954694;28;20046;-81
2021/03/17 11:01:02;;;;;;;5.53;2.88;;;9.90;49.60;;;;;;4953769;28;20031;-81
2021/03/17 11:03:31;;;;;;;7.00;2.72;;;9.40;51.80;;;;;;4953300;28;20972;-81
2021/03/17 11:06:18;;;;;;;8.00;3.17;;;8.80;55.20;;;;;;4951127;28;20035;-82
2021/03/17 11:08:45;;;;;;;5.57;3.05;;;8.60;61.00;;;;;;4953358;28;20046;-82
2021/03/17 11:11:12;;;;;;;7.50;2.38;;;8.00;60.20;;;;;;4941860;28;20447;-81
2021/03/17 11:13:46;;;;;;;6.97;2.92;;;7.70;66.00;;;;;;4950356;28;20113;-82
2021/03/17 11:16:14;;;;;;;5.90;2.80;;;7.50;69.00;;;;;;4951008;28;20039;-82
2021/03/17 11:18:51;;;;;;;7.20;3.80;;;7.20;72.90;;;;;;4959548;28;20090;-81
2021/03/17 11:21:28;;;;;;;7.32;3.42;;;7.00;75.70;;;;;;4952014;28;20065;-81
2021/03/17 11:23:56;;;;;;;9.60;3.83;;;7.00;77.30;;;;;;4953327;28;20049;-81
2021/03/17 11:26:25;;;;;;;8.60;4.03;;;6.90;79.00;;;;;;4950666;28;20566;-81
2021/03/17 11:28:52;;;;;;;7.82;3.60;;;6.70;78.90;;;;;;4954651;28;20043;-81
2021/03/17 11:31:24;;;;;;;8.05;4.03;;;6.70;79.20;;;;;;4959724;28;20058;-81
2021/03/17 11:33:50;;;;;;;12.43;4.55;;;6.60;79.70;;;;;;4968835;28;20049;-79
2021/03/17 11:36:16;;;;;;;8.68;4.15;;;6.60;80.30;;;;;;4953353;28;20035;-81
2021/03/17 11:38:42;;;;;;;11.82;5.15;;;6.70;83.30;;;;;;4951442;28;20122;-84
2021/03/17 11:41:07;;;;;;;8.50;4.68;;;6.60;85.50;;;;;;4948274;28;20519;-80
2021/03/17 11:43:33;;;;;;;9.57;4.72;;;6.40;86.20;;;;;;4950809;28;20039;-79
2021/03/17 11:46:00;;;;;;;12.70;4.63;;;6.20;90.30;;;;;;4949782;28;20054;-80
2021/03/17 11:48:27;;;;;;;14.98;5.53;;;5.90;93.40;;;;;;4951340;28;20132;-79
2021/03/17 11:50:55;;;;;;;13.63;4.95;;;5.70;96.30;;;;;;4953102;28;20046;-80
2021/03/17 11:53:21;;;;;;;11.05;5.70;;;5.70;99.90;;;;;;4955562;28;20140;-79
2021/03/17 11:55:49;;;;;;;11.70;6.05;;;5.30;99.90;;;;;;4951094;28;20409;-79
2021/03/17 11:58:15;;;;;;;14.60;6.35;;;5.00;99.90;;;;;;4945174;28;20369;-77
2021/03/17 12:00:41;;;;;;;14.30;7.00;;;4.90;99.90;;;;;;4935094;28;20034;-75
2021/03/17 12:03:07;;;;;;;20.88;9.10;;;4.70;99.90;;;;;;4948175;28;20599;-75
2021/03/17 12:05:34;;;;;;;21.52;8.07;;;4.70;99.90;;;;;;4950467;28;20772;-76
2021/03/17 12:08:00;;;;;;;20.30;8.57;;;4.70;99.90;;;;;;4946275;28;20035;-76
2021/03/17 12:10:27;;;;;;;17.73;8.57;;;4.80;99.90;;;;;;4949764;28;20061;-75
2021/03/17 12:12:53;;;;;;;20.67;8.73;;;4.70;99.90;;;;;;4948589;28;20141;-75
2021/03/17 12:15:20;;;;;;;22.02;8.50;;;4.50;99.90;;;;;;4946990;28;20504;-74
2021/03/17 12:17:46;;;;;;;19.25;9.20;;;4.50;99.90;;;;;;4947892;28;20091;-74
2021/03/17 12:20:13;;;;;;;21.05;8.85;;;4.50;99.90;;;;;;4948209;28;20118;-73
2021/03/17 12:22:39;;;;;;;22.02;10.00;;;4.50;99.90;;;;;;4946478;28;20641;-73
2021/03/17 12:25:07;;;;;;;23.27;9.60;;;4.30;99.90;;;;;;4946755;28;20082;-74
2021/03/17 12:27:33;;;;;;;20.65;9.88;;;4.30;99.90;;;;;;4946996;28;20047;-74
2021/03/17 12:29:59;;;;;;;22.05;9.13;;;4.20;99.90;;;;;;4946691;28;20106;-75
2021/03/17 12:32:25;;;;;;;22.98;9.70;;;4.20;99.90;;;;;;4948634;28;20074;-75
2021/03/17 12:34:51;;;;;;;17.40;8.68;;;4.10;99.90;;;;;;4947301;28;20043;-74
2021/03/17 12:37:16;;;;;;;19.98;8.18;;;4.00;99.90;;;;;;4946781;28;20043;-73
2021/03/17 12:39:42;;;;;;;17.48;8.35;;;4.00;99.90;;;;;;4948369;28;20050;-74
2021/03/17 12:42:09;;;;;;;22.95;9.23;;;4.00;99.90;;;;;;4945288;28;20042;-74
2021/03/17 12:44:36;;;;;;;16.08;8.63;;;4.00;99.90;;;;;;4949825;28;20034;-75
2021/03/17 12:47:06;;;;;;;18.85;8.93;;;4.00;99.90;;;;;;4946655;28;20036;-74
2021/03/17 12:49:32;;;;;;;18.05;7.78;;;4.00;99.90;;;;;;4946602;28;20035;-75
2021/03/17 12:51:58;;;;;;;17.98;8.45;;;3.90;99.90;;;;;;4947522;28;20043;-75
2021/03/17 12:54:23;;;;;;;16.88;8.48;;;3.80;99.90;;;;;;4949350;28;20049;-75
2021/03/17 12:56:49;;;;;;;16.75;8.60;;;3.90;99.90;;;;;;4952605;28;20054;-75
2021/03/17 12:59:15;;;;;;;17.05;8.45;;;3.70;99.90;;;;;;4952416;28;20046;-75
2021/03/17 13:01:41;;;;;;;16.20;8.27;;;3.80;99.90;;;;;;4947419;28;20035;-75
2021/03/17 13:04:07;;;;;;;20.98;8.93;;;3.80;99.90;;;;;;4948712;28;20042;-76
2021/03/17 13:06:33;;;;;;;21.52;10.40;;;3.90;99.90;;;;;;4953470;28;20078;-77
2021/03/17 13:09:02;;;;;;;27.17;10.57;;;4.00;99.90;;;;;;4953277;28;20046;-76
2021/03/17 13:11:29;;;;;;;19.90;8.23;;;4.00;99.90;;;;;;4954340;28;20070;-76
2021/03/17 13:13:55;;;;;;;17.98;8.70;;;4.00;99.90;;;;;;4952510;28;20063;-76